createdAt,value
2023-04-28T00:00:28.435Z,101107.84
2023-04-28T00:02:56.622Z,101102.56
2023-04-28T00:05:25.140Z,101094.56
2023-04-28T00:07:52.908Z,101095.66
2023-04-28T00:10:20.635Z,101100.75
2023-04-28T00:12:48.218Z,101097.97
2023-04-28T00:15:17.144Z,101083.44
2023-04-28T00:17:44.890Z,101085.66
2023-04-28T00:20:13.398Z,101084.34
2023-04-28T00:22:41.365Z,101090.13
2023-04-28T00:25:09.874Z,101077.16
2023-04-28T00:27:37.717Z,101076.50
2023-04-28T00:30:06.476Z,101068.72
2023-04-28T00:32:35.568Z,101066.03
2023-04-28T00:35:03.200Z,101063.28
2023-04-28T00:37:30.802Z,101058.59
2023-04-28T00:39:58.356Z,101059.91
2023-04-28T00:42:26.217Z,101064.38
2023-04-28T00:44:53.820Z,101061.00
2023-04-28T00:47:21.480Z,101053.56
2023-04-28T00:49:50.552Z,101058.91
2023-04-28T00:52:18.151Z,101050.50
2023-04-28T00:54:47.610Z,101048.81
2023-04-28T00:57:15.276Z,101042.19
2023-04-28T00:59:43.010Z,101059.53
2023-04-28T01:02:17.141Z,101044.41
2023-04-28T01:04:46.103Z,101039.28
2023-04-28T01:07:15.209Z,101041.44
2023-04-28T01:09:44.038Z,101040.06
2023-04-28T01:12:11.687Z,101031.97
2023-04-28T01:14:39.288Z,101032.09
2023-04-28T01:17:07.385Z,101022.75
2023-04-28T01:19:34.959Z,101023.56
2023-04-28T01:22:02.626Z,101027.25
2023-04-28T01:24:31.866Z,101024.94
2023-04-28T01:27:02.880Z,101020.53
2023-04-28T01:29:30.653Z,101022.69
2023-04-28T01:31:58.409Z,101018.56
2023-04-28T01:34:26.414Z,101018.03
2023-04-28T01:36:54.028Z,101017.59
2023-04-28T01:39:22.639Z,101017.91
2023-04-28T01:41:51.600Z,101009.13
2023-04-28T01:44:19.723Z,101010.75
2023-04-28T01:46:48.437Z,101000.13
2023-04-28T01:49:16.109Z,101007.69
2023-04-28T01:51:43.740Z,101002.28
2023-04-28T01:54:11.819Z,100998.22
2023-04-28T01:56:39.637Z,100994.19
2023-04-28T01:59:08.595Z,100994.47
2023-04-28T02:01:36.238Z,100985.34
2023-04-28T02:04:06.494Z,100980.03
2023-04-28T02:06:34.164Z,100976.31
2023-04-28T02:09:01.777Z,100974.94
2023-04-28T02:11:29.387Z,100966.16
2023-04-28T02:13:56.957Z,100964.47
2023-04-28T02:16:26.016Z,100972.41
2023-04-28T02:18:53.814Z,100963.53
2023-04-28T02:21:21.408Z,100978.59
2023-04-28T02:23:50.292Z,100968.88
2023-04-28T02:26:18.042Z,100965.44
2023-04-28T02:28:45.987Z,100957.72
2023-04-28T02:31:13.962Z,100960.66
2023-04-28T02:33:43.183Z,100960.22
2023-04-28T02:36:11.537Z,100959.81
2023-04-28T02:38:41.638Z,100949.38
2023-04-28T02:41:10.023Z,100945.88
2023-04-28T02:43:38.296Z,100928.16
2023-04-28T02:46:06.178Z,100928.38
2023-04-28T02:48:35.537Z,100929.22
2023-04-28T02:51:06.872Z,100931.94
2023-04-28T02:53:34.564Z,100925.25
2023-04-28T02:56:04.383Z,100925.25
2023-04-28T02:58:32.032Z,100926.09
2023-04-28T03:00:59.639Z,100922.91
2023-04-28T03:03:27.417Z,100924.91
2023-04-28T03:05:56.720Z,100915.38
2023-04-28T03:08:27.256Z,100914.50
2023-04-28T03:10:55.455Z,100907.63
2023-04-28T03:13:23.072Z,100903.38
2023-04-28T03:15:50.974Z,100909.28
2023-04-28T03:18:18.623Z,100904.63
2023-04-28T03:20:46.237Z,100898.13
2023-04-28T03:23:13.796Z,100890.34
2023-04-28T03:25:42.787Z,100885.91
2023-04-28T03:28:11.708Z,100895.03
2023-04-28T03:30:39.306Z,100895.69
2023-04-28T03:33:07.331Z,100886.75
2023-04-28T03:35:34.969Z,100889.63
2023-04-28T03:38:02.556Z,100885.25
2023-04-28T03:40:30.139Z,100879.56
2023-04-28T03:42:59.339Z,100881.34
2023-04-28T03:45:27.012Z,100863.75
2023-04-28T03:47:55.013Z,100864.44
2023-04-28T03:50:24.184Z,100861.06
2023-04-28T03:52:52.975Z,100858.22
2023-04-28T03:55:20.674Z,100855.41
2023-04-28T03:57:48.382Z,100855.03
2023-04-28T04:00:17.678Z,100851.06
2023-04-28T04:02:45.464Z,100856.88
2023-04-28T04:05:13.430Z,100844.06
2023-04-28T04:07:41.623Z,100841.19
2023-04-28T04:10:11.707Z,100848.34
2023-04-28T04:12:39.315Z,100845.75
2023-04-28T04:15:08.363Z,100844.53
2023-04-28T04:17:37.396Z,100841.84
2023-04-28T04:20:05.855Z,100839.88
2023-04-28T04:22:33.438Z,100839.78
2023-04-28T04:25:01.130Z,100834.41
2023-04-28T04:27:28.774Z,100829.19
2023-04-28T04:29:56.353Z,100829.56
2023-04-28T04:32:24.121Z,100823.16
2023-04-28T04:34:53.014Z,100830.25
2023-04-28T04:37:20.613Z,100828.22
2023-04-28T04:39:48.273Z,100831.09
2023-04-28T04:42:24.911Z,100827.38
2023-04-28T04:44:52.753Z,100813.78
2023-04-28T04:47:20.378Z,100819.16
2023-04-28T04:49:48.877Z,100819.16
2023-04-28T04:52:17.818Z,100813.97
2023-04-28T04:54:45.568Z,100814.13
2023-04-28T04:57:13.231Z,100823.41
2023-04-28T04:59:40.935Z,100821.69
2023-04-28T05:02:08.753Z,100821.50
2023-04-28T05:04:36.409Z,100824.28
2023-04-28T05:07:04.118Z,100812.34
2023-04-28T05:09:35.935Z,100811.19
2023-04-28T05:12:03.823Z,100811.88
2023-04-28T05:14:31.608Z,100810.38
2023-04-28T05:17:00.376Z,100812.50
2023-04-28T05:19:28.040Z,100815.06
2023-04-28T05:21:55.620Z,100804.38
2023-04-28T05:24:24.004Z,100802.00
2023-04-28T05:26:54.200Z,100808.19
2023-04-28T05:29:23.084Z,100799.09
2023-04-28T05:31:52.408Z,100785.88
2023-04-28T05:34:20.130Z,100804.81
2023-04-28T05:36:47.799Z,100787.53
2023-04-28T05:39:15.467Z,100787.53
2023-04-28T05:41:43.198Z,100784.38
2023-04-28T05:44:12.429Z,100778.69
2023-04-28T05:46:40.297Z,100782.03
2023-04-28T05:49:07.999Z,100771.25
2023-04-28T05:51:35.763Z,100780.38
2023-04-28T05:54:03.725Z,100777.81
2023-04-28T05:56:31.720Z,100774.19
2023-04-28T05:59:00.842Z,100773.25
2023-04-28T06:01:29.730Z,100768.69
2023-04-28T06:03:58.583Z,100773.91
2023-04-28T06:06:27.890Z,100772.97
2023-04-28T06:08:55.673Z,100772.50
2023-04-28T06:11:23.324Z,100767.63
2023-04-28T06:13:51.796Z,100768.50
2023-04-28T06:16:19.552Z,100760.41
2023-04-28T06:18:49.731Z,100763.94
2023-04-28T06:21:18.143Z,100766.25
2023-04-28T06:23:45.957Z,100763.56
2023-04-28T06:26:14.740Z,100761.13
2023-04-28T06:28:43.342Z,100756.69
2023-04-28T06:31:11.153Z,100756.75
2023-04-28T06:33:38.800Z,100762.16
2023-04-28T06:36:08.794Z,100757.69
2023-04-28T06:38:37.482Z,100757.97
2023-04-28T06:41:05.304Z,100757.66
2023-04-28T06:43:33.513Z,100765.38
2023-04-28T06:46:01.369Z,100765.31
2023-04-28T06:48:29.082Z,100768.84
2023-04-28T06:50:56.742Z,100765.19
2023-04-28T06:53:25.677Z,100771.50
2023-04-28T06:55:53.244Z,100759.19
2023-04-28T06:58:21.643Z,100759.84
2023-04-28T07:00:49.335Z,100749.19
2023-04-28T07:03:17.071Z,100739.72
2023-04-28T07:05:44.930Z,100739.16
2023-04-28T07:08:12.621Z,100744.56
2023-04-28T07:10:42.599Z,100736.97
2023-04-28T07:13:10.667Z,100738.25
2023-04-28T07:15:38.784Z,100735.59
2023-04-28T07:18:06.651Z,100735.56
2023-04-28T07:20:34.338Z,100729.53
2023-04-28T07:23:02.522Z,100731.03
2023-04-28T07:25:30.205Z,100732.09
2023-04-28T07:27:59.278Z,100737.34
2023-04-28T07:30:28.237Z,100727.50
2023-04-28T07:32:56.357Z,100733.72
2023-04-28T07:35:24.168Z,100736.50
2023-04-28T07:37:51.936Z,100726.72
2023-04-28T07:40:20.170Z,100734.09
2023-04-28T07:42:48.477Z,100729.16
2023-04-28T07:45:17.746Z,100733.59
2023-04-28T07:47:47.454Z,100727.72
2023-04-28T07:50:16.129Z,100727.13
2023-04-28T07:52:44.842Z,100718.03
2023-04-28T07:55:12.548Z,100714.94
2023-04-28T07:57:40.962Z,100716.63
2023-04-28T08:00:11.932Z,100714.78
2023-04-28T08:02:41.162Z,100710.22
2023-04-28T08:05:10.938Z,100708.56
2023-04-28T08:07:38.836Z,100710.44
2023-04-28T08:10:07.354Z,100704.84
2023-04-28T08:12:35.005Z,100702.75
2023-04-28T08:15:02.732Z,100699.47
2023-04-28T08:17:30.398Z,100707.41
2023-04-28T08:19:59.506Z,100701.63
2023-04-28T08:22:27.256Z,100694.97
2023-04-28T08:24:54.860Z,100697.47
2023-04-28T08:27:23.735Z,100696.44
2023-04-28T08:29:51.781Z,100702.03
2023-04-28T08:32:19.509Z,100697.06
2023-04-28T08:34:47.678Z,100687.69
2023-04-28T08:37:16.705Z,100696.03
2023-04-28T08:39:44.524Z,100697.06
2023-04-28T08:42:12.200Z,100691.44
2023-04-28T08:44:40.810Z,100688.13
2023-04-28T08:47:13.872Z,100684.38
2023-04-28T08:49:42.842Z,100694.16
2023-04-28T08:52:12.545Z,100686.88
2023-04-28T08:54:42.068Z,100690.25
2023-04-28T08:57:11.063Z,100674.81
2023-04-28T08:59:42.347Z,100682.16
2023-04-28T09:02:10.573Z,100674.19
2023-04-28T09:04:39.028Z,100680.47
2023-04-28T09:07:12.142Z,100682.75
2023-04-28T09:09:41.720Z,100669.84
2023-04-28T09:12:09.376Z,100657.28
2023-04-28T09:14:38.294Z,100661.06
2023-04-28T09:17:11.170Z,100656.25
2023-04-28T09:19:39.747Z,100655.44
2023-04-28T09:22:24.659Z,100652.50
2023-04-28T09:24:55.966Z,100653.97
2023-04-28T09:27:28.366Z,100649.97
2023-04-28T09:29:56.225Z,100652.69
2023-04-28T09:32:25.885Z,100642.06
2023-04-28T09:34:56.597Z,100643.72
2023-04-28T09:37:25.755Z,100636.84
2023-04-28T09:39:55.628Z,100639.13
2023-04-28T09:42:34.514Z,100647.09
2023-04-28T09:45:03.386Z,100647.47
2023-04-28T09:47:33.227Z,100642.47
2023-04-28T09:50:02.145Z,100635.38
2023-04-28T09:52:29.896Z,100637.47
2023-04-28T09:54:59.559Z,100633.28
2023-04-28T09:57:31.381Z,100628.88
2023-04-28T09:59:59.883Z,100635.75
2023-04-28T10:04:59.295Z,100637.88
2023-04-28T10:07:28.503Z,100639.94
2023-04-28T10:09:57.005Z,100635.75
2023-04-28T10:12:26.767Z,100629.94
2023-04-28T10:14:54.807Z,100627.84
2023-04-28T10:17:25.387Z,100635.97
2023-04-28T10:19:55.447Z,100630.13
2023-04-28T10:22:38.032Z,100628.47
2023-04-28T10:25:27.697Z,100623.63
2023-04-28T10:27:58.527Z,100622.34
2023-04-28T10:30:29.681Z,100614.81
2023-04-28T10:33:27.359Z,100613.13
2023-04-28T10:35:55.497Z,100619.81
2023-04-28T10:38:23.289Z,100618.13
2023-04-28T10:40:53.750Z,100610.38
2023-04-28T10:43:37.737Z,100613.91
2023-04-28T10:46:09.941Z,100611.16
2023-04-28T10:49:10.246Z,100610.72
2023-04-28T10:51:38.092Z,100609.00
2023-04-28T10:54:28.257Z,100608.56
2023-04-28T10:57:19.024Z,100600.19
2023-04-28T10:59:48.652Z,100606.03
2023-04-28T11:02:44.696Z,100594.13
2023-04-28T11:05:20.188Z,100591.22
2023-04-28T11:08:31.233Z,100589.28
2023-04-28T11:11:29.586Z,100594.06
2023-04-28T11:14:32.729Z,100587.31
2023-04-28T11:17:04.278Z,100582.06
2023-04-28T11:19:34.174Z,100577.47
2023-04-28T11:22:04.485Z,100573.66
2023-04-28T11:24:32.537Z,100569.03
2023-04-28T11:27:02.228Z,100570.50
2023-04-28T11:29:33.650Z,100575.28
2023-04-28T11:32:03.690Z,100569.84
2023-04-28T11:34:31.842Z,100567.16
2023-04-28T11:36:59.687Z,100567.31
2023-04-28T11:39:31.678Z,100568.75
2023-04-28T11:42:00.946Z,100560.66
2023-04-28T11:44:30.406Z,100567.38
2023-04-28T11:47:00.674Z,100562.78
2023-04-28T11:49:32.009Z,100568.16
2023-04-28T11:52:05.949Z,100562.28
2023-04-28T11:54:34.400Z,100568.59
2023-04-28T11:57:04.249Z,100567.53
2023-04-28T11:59:34.252Z,100567.13
2023-04-28T12:02:04.167Z,100562.97
2023-04-28T12:04:36.472Z,100561.94
2023-04-28T12:07:06.960Z,100562.72
2023-04-28T12:09:35.931Z,100562.09
2023-04-28T12:12:05.142Z,100565.88
2023-04-28T12:14:35.535Z,100563.19
2023-04-28T12:17:03.997Z,100560.88
2023-04-28T12:19:44.692Z,100558.38
2023-04-28T12:22:13.004Z,100562.97
2023-04-28T12:24:40.872Z,100557.53
2023-04-28T12:27:16.659Z,100561.56
2023-04-28T12:29:46.534Z,100552.91
2023-04-28T12:32:14.647Z,100549.13
2023-04-28T12:34:46.672Z,100550.63
2023-04-28T12:37:14.350Z,100551.06
2023-04-28T12:39:43.106Z,100534.13
2023-04-28T12:42:11.703Z,100532.19
2023-04-28T12:44:40.713Z,100530.69
2023-04-28T12:47:10.873Z,100534.03
2023-04-28T12:49:39.311Z,100531.53
2023-04-28T12:52:09.490Z,100531.41
2023-04-28T12:54:38.023Z,100531.41
2023-04-28T12:57:05.783Z,100528.88
2023-04-28T12:59:34.857Z,100530.50
2023-04-28T13:02:02.730Z,100532.91
2023-04-28T13:04:32.052Z,100529.81
2023-04-28T13:07:00.293Z,100525.19
2023-04-28T13:09:29.645Z,100527.31
2023-04-28T13:11:57.222Z,100527.13
2023-04-28T13:14:25.043Z,100516.25
2023-04-28T13:16:53.487Z,100520.25
2023-04-28T13:19:21.194Z,100510.38
2023-04-28T13:21:48.807Z,100505.38
2023-04-28T13:24:16.734Z,100507.31
2023-04-28T13:26:46.326Z,100502.72
2023-04-28T13:29:14.396Z,100491.41
2023-04-28T13:31:42.334Z,100491.63
2023-04-28T13:34:15.739Z,100488.03
2023-04-28T13:36:44.580Z,100486.44
2023-04-28T13:39:14.431Z,100490.13
2023-04-28T13:41:42.283Z,100496.22
2023-04-28T13:44:11.268Z,100497.72
2023-04-28T13:46:38.998Z,100484.94
2023-04-28T13:49:06.640Z,100491.63
2023-04-28T13:51:34.263Z,100483.94
2023-04-28T13:54:04.222Z,100478.09
2023-04-28T13:56:32.444Z,100482.63
2023-04-28T13:59:00.279Z,100483.25
2023-04-28T14:01:29.991Z,100477.41
2023-04-28T14:03:57.855Z,100479.72
2023-04-28T14:06:28.264Z,100479.50
2023-04-28T14:08:56.043Z,100480.53
2023-04-28T14:11:23.661Z,100479.03
2023-04-28T14:13:51.233Z,100473.81
2023-04-28T14:16:18.908Z,100467.41
2023-04-28T14:18:48.161Z,100469.66
2023-04-28T14:21:15.842Z,100465.50
2023-04-28T14:23:43.509Z,100460.06
2023-04-28T14:26:11.135Z,100463.78
2023-04-28T14:28:38.726Z,100469.88
2023-04-28T14:31:08.513Z,100456.88
2023-04-28T14:33:36.607Z,100463.19
2023-04-28T14:36:06.037Z,100461.91
2023-04-28T14:38:33.674Z,100458.34
2023-04-28T14:41:01.306Z,100456.75
2023-04-28T14:43:28.950Z,100452.06
2023-04-28T14:45:56.686Z,100454.78
2023-04-28T14:48:24.575Z,100450.78
2023-04-28T14:50:52.216Z,100450.38
2023-04-28T14:53:21.199Z,100446.78
2023-04-28T14:55:48.824Z,100442.84
2023-04-28T14:58:17.460Z,100436.56
2023-04-28T15:00:45.079Z,100432.56
2023-04-28T15:03:12.913Z,100419.75
2023-04-28T15:05:40.664Z,100420.50
2023-04-28T15:08:08.514Z,100416.13
2023-04-28T15:10:40.719Z,100412.50
2023-04-28T15:13:08.832Z,100416.91
2023-04-28T15:15:36.592Z,100412.13
2023-04-28T15:18:04.489Z,100409.94
2023-04-28T15:20:33.627Z,100411.38
2023-04-28T15:23:01.478Z,100415.47
2023-04-28T15:25:29.320Z,100404.34
2023-04-28T15:27:58.224Z,100406.25
2023-04-28T15:30:25.934Z,100398.91
2023-04-28T15:32:53.593Z,100393.56
2023-04-28T15:35:22.052Z,100395.97
2023-04-28T15:37:53.204Z,100402.84
2023-04-28T15:40:21.620Z,100391.16
2023-04-28T15:42:51.428Z,100396.44
2023-04-28T15:45:21.436Z,100389.25
2023-04-28T15:47:50.431Z,100384.88
2023-04-28T15:50:20.109Z,100383.56
2023-04-28T15:52:50.258Z,100374.06
2023-04-28T15:55:19.258Z,100376.09
2023-04-28T15:57:47.392Z,100379.88
2023-04-28T16:00:16.381Z,100372.34
2023-04-28T16:02:45.937Z,100382.28
2023-04-28T16:05:13.940Z,100377.78
2023-04-28T16:07:41.732Z,100368.25
2023-04-28T16:10:13.200Z,100361.72
2023-04-28T16:12:41.932Z,100365.53
2023-04-28T16:15:12.213Z,100365.97
2023-04-28T16:17:40.640Z,100374.13
2023-04-28T16:20:11.495Z,100370.34
2023-04-28T16:22:40.525Z,100374.28
2023-04-28T16:25:09.339Z,100374.28
2023-04-28T16:27:37.472Z,100385.38
2023-04-28T16:30:07.311Z,100392.25
2023-04-28T16:32:36.393Z,100387.06
2023-04-28T16:35:06.170Z,100388.91
2023-04-28T16:37:36.358Z,100391.88
2023-04-28T16:40:04.544Z,100388.34
2023-04-28T16:42:32.279Z,100388.91
2023-04-28T16:44:59.949Z,100381.00
2023-04-28T16:47:28.226Z,100382.72
2023-04-28T16:49:55.856Z,100380.84
2023-04-28T16:52:26.032Z,100377.75
2023-04-28T16:54:54.952Z,100383.84
2023-04-28T16:57:22.793Z,100384.09
2023-04-28T16:59:50.852Z,100381.16
2023-04-28T17:02:18.739Z,100377.41
2023-04-28T17:04:46.530Z,100382.41
2023-04-28T17:07:14.471Z,100380.13
2023-04-28T17:09:42.070Z,100370.28
2023-04-28T17:12:11.194Z,100365.31
2023-04-28T17:14:39.876Z,100366.81
2023-04-28T17:17:08.958Z,100355.09
2023-04-28T17:19:36.917Z,100363.03
2023-04-28T17:22:04.585Z,100356.53
2023-04-28T17:24:32.157Z,100359.47
2023-04-28T17:26:59.904Z,100345.50
2023-04-28T17:29:28.802Z,100344.56
2023-04-28T17:31:56.582Z,100338.47
2023-04-28T17:34:24.334Z,100342.63
2023-04-28T17:36:51.924Z,100338.19
2023-04-28T17:39:19.497Z,100328.59
2023-04-28T17:41:47.460Z,100315.59
2023-04-28T17:44:15.225Z,100325.88
2023-04-28T17:46:44.822Z,100322.47
2023-04-28T17:49:12.660Z,100319.25
2023-04-28T17:51:40.314Z,100323.81
2023-04-28T17:54:09.547Z,100325.47
2023-04-28T17:56:38.002Z,100323.81
2023-04-28T17:59:06.298Z,100327.97
2023-04-28T18:01:34.944Z,100323.22
2023-04-28T18:04:04.611Z,100314.06
2023-04-28T18:06:34.684Z,100314.78
2023-04-28T18:09:02.293Z,100310.84
2023-04-28T18:11:29.979Z,100313.81
2023-04-28T18:13:59.903Z,100314.47
2023-04-28T18:16:27.664Z,100310.28
2023-04-28T18:18:55.379Z,100320.13
2023-04-28T18:21:24.346Z,100313.25
2023-04-28T18:23:52.083Z,100311.34
2023-04-28T18:26:20.939Z,100314.06
2023-04-28T18:28:48.832Z,100312.84
2023-04-28T18:31:16.821Z,100310.59
2023-04-28T18:33:45.074Z,100310.59
2023-04-28T18:36:12.755Z,100302.91
2023-04-28T18:38:42.051Z,100297.47
2023-04-28T18:41:14.169Z,100304.16
2023-04-28T18:43:42.664Z,100299.09
2023-04-28T18:46:10.543Z,100305.00
2023-04-28T18:48:38.399Z,100310.03
2023-04-28T18:51:07.839Z,100296.44
2023-04-28T18:53:36.759Z,100307.13
2023-04-28T18:56:05.943Z,100302.09
2023-04-28T18:58:33.771Z,100297.13
2023-04-28T19:01:01.457Z,100295.63
2023-04-28T19:03:30.368Z,100307.13
2023-04-28T19:05:58.067Z,100295.47
2023-04-28T19:08:25.757Z,100302.34
2023-04-28T19:10:53.414Z,100303.31
2023-04-28T19:13:22.833Z,100303.94
2023-04-28T19:15:53.526Z,100297.63
2023-04-28T19:18:21.285Z,100301.56
2023-04-28T19:20:51.587Z,100300.28
2023-04-28T19:23:19.193Z,100309.88
2023-04-28T19:25:47.589Z,100305.66
2023-04-28T19:28:15.365Z,100308.38
2023-04-28T19:30:44.591Z,100310.22
2023-04-28T19:33:12.730Z,100315.31
2023-04-28T19:35:40.914Z,100316.59
2023-04-28T19:38:09.438Z,100317.41
2023-04-28T19:40:37.328Z,100319.50
2023-04-28T19:43:05.296Z,100316.59
2023-04-28T19:45:34.914Z,100319.72
2023-04-28T19:48:05.072Z,100326.22
2023-04-28T19:50:33.602Z,100310.59
2023-04-28T19:53:01.150Z,100307.25
2023-04-28T19:55:29.477Z,100314.59
2023-04-28T19:57:58.492Z,100327.53
2023-04-28T20:00:27.547Z,100323.94
2023-04-28T20:02:55.834Z,100320.78
2023-04-28T20:05:25.235Z,100321.63
2023-04-28T20:07:55.992Z,100321.78
2023-04-28T20:10:24.363Z,100321.63
2023-04-28T20:12:52.591Z,100326.84
2023-04-28T20:15:20.936Z,100331.59
2023-04-28T20:17:49.301Z,100335.81
2023-04-28T20:20:17.148Z,100326.22
2023-04-28T20:22:48.730Z,100331.69
2023-04-28T20:25:17.492Z,100331.13
2023-04-28T20:27:46.954Z,100327.13
2023-04-28T20:30:14.942Z,100323.13
2023-04-28T20:32:42.768Z,100321.63
2023-04-28T20:35:10.862Z,100325.78
2023-04-28T20:37:38.536Z,100321.78
2023-04-28T20:40:10.138Z,100323.22
2023-04-28T20:42:37.810Z,100318.16
2023-04-28T20:45:06.950Z,100324.84
2023-04-28T20:47:36.300Z,100321.88
2023-04-28T20:50:04.752Z,100327.31
2023-04-28T20:52:32.447Z,100320.59
2023-04-28T20:55:00.259Z,100324.97
2023-04-28T20:57:29.248Z,100328.06
2023-04-28T20:59:57.105Z,100328.94
2023-04-28T21:02:25.387Z,100326.78
2023-04-28T21:04:53.893Z,100320.31
2023-04-28T21:07:21.485Z,100323.44
2023-04-28T21:09:49.229Z,100326.38
2023-04-28T21:12:17.010Z,100319.88
2023-04-28T21:14:45.903Z,100318.81
2023-04-28T21:17:13.490Z,100320.50
2023-04-28T21:19:41.080Z,100319.44
2023-04-28T21:22:09.797Z,100321.31
2023-04-28T21:24:37.452Z,100318.38
2023-04-28T21:27:05.169Z,100319.22
2023-04-28T21:29:34.400Z,100319.00
2023-04-28T21:32:04.039Z,100330.09
2023-04-28T21:34:32.376Z,100321.31
2023-04-28T21:37:01.149Z,100319.88
2023-04-28T21:39:28.903Z,100316.97
2023-04-28T21:41:56.559Z,100332.69
2023-04-28T21:44:24.340Z,100328.06
2023-04-28T21:46:52.032Z,100320.53
2023-04-28T21:49:20.987Z,100325.97
2023-04-28T21:51:48.584Z,100338.09
2023-04-28T21:54:16.201Z,100334.09
2023-04-28T21:56:43.756Z,100327.59
2023-04-28T21:59:11.296Z,100327.59
2023-04-28T22:01:39.641Z,100329.09
2023-04-28T22:04:08.591Z,100325.75
2023-04-28T22:06:37.745Z,100325.09
2023-04-28T22:09:06.025Z,100322.59
2023-04-28T22:11:33.862Z,100327.81
2023-04-28T22:14:01.475Z,100332.59
2023-04-28T22:16:29.724Z,100343.06
2023-04-28T22:18:57.447Z,100336.47
2023-04-28T22:21:25.431Z,100340.47
2023-04-28T22:23:54.366Z,100341.91
2023-04-28T22:26:22.575Z,100340.63
2023-04-28T22:28:50.520Z,100344.78
2023-04-28T22:31:18.214Z,100339.75
2023-04-28T22:33:45.877Z,100346.00
2023-04-28T22:36:15.656Z,100346.44
2023-04-28T22:38:43.271Z,100348.53
2023-04-28T22:41:12.175Z,100346.69
2023-04-28T22:43:42.265Z,100356.94
2023-04-28T22:46:10.105Z,100357.22
2023-04-28T22:48:37.772Z,100351.56
2023-04-28T22:51:05.351Z,100351.09
2023-04-28T22:53:32.986Z,100352.38
2023-04-28T22:56:02.890Z,100356.19
2023-04-28T22:58:31.798Z,100347.16
2023-04-28T23:01:01.302Z,100346.34
2023-04-28T23:03:28.995Z,100347.00
2023-04-28T23:05:56.678Z,100344.75
2023-04-28T23:08:24.330Z,100346.41
2023-04-28T23:10:52.084Z,100350.78
2023-04-28T23:13:19.670Z,100351.78
2023-04-28T23:15:48.868Z,100356.53
2023-04-28T23:18:16.475Z,100346.06
2023-04-28T23:20:44.210Z,100349.44
2023-04-28T23:23:11.841Z,100352.22
2023-04-28T23:25:41.890Z,100353.50
2023-04-28T23:28:10.547Z,100354.94
2023-04-28T23:30:38.214Z,100356.44
2023-04-28T23:33:07.154Z,100356.66
2023-04-28T23:35:34.809Z,100360.44
2023-04-28T23:38:04.102Z,100363.38
2023-04-28T23:40:31.837Z,100361.06
2023-04-28T23:42:59.487Z,100357.06
2023-04-28T23:45:27.253Z,100357.94
2023-04-28T23:47:55.134Z,100353.34
2023-04-28T23:50:24.910Z,100353.03
2023-04-28T23:52:52.564Z,100354.69
2023-04-28T23:55:20.596Z,100352.16
2023-04-28T23:57:48.262Z,100367.94
